createdAt,value
2022-09-23T00:01:09.510Z,101920.97
2022-09-23T00:03:38.285Z,101909.75
2022-09-23T00:06:10.644Z,101908.94
2022-09-23T00:08:38.109Z,101912.38
2022-09-23T00:11:13.685Z,101911.53
2022-09-23T00:13:42.211Z,101917.59
2022-09-23T00:16:11.862Z,101912.38
2022-09-23T00:18:38.416Z,101908.16
2022-09-23T00:21:06.446Z,101909.03
2022-09-23T00:23:33.168Z,101908.16
2022-09-23T00:26:01.251Z,101901.19
2022-09-23T00:28:27.967Z,101902.13
2022-09-23T00:30:54.337Z,101890.84
2022-09-23T00:33:20.705Z,101890.84
2022-09-23T00:35:47.648Z,101889.97
2022-09-23T00:38:14.292Z,101888.31
2022-09-23T00:40:47.155Z,101885.72
2022-09-23T00:43:17.786Z,101886.66
2022-09-23T00:45:49.278Z,101881.41
2022-09-23T00:48:20.341Z,101882.25
2022-09-23T00:50:54.311Z,101886.66
2022-09-23T00:53:23.742Z,101885.81
2022-09-23T00:55:54.100Z,101878.91
2022-09-23T00:58:26.678Z,101867.59
2022-09-23T01:00:54.326Z,101872.81
2022-09-23T01:03:22.700Z,101868.47
2022-09-23T01:05:50.056Z,101874.50
2022-09-23T01:08:16.631Z,101860.72
2022-09-23T01:11:01.139Z,101865.94
2022-09-23T01:13:42.031Z,101874.72
2022-09-23T01:16:22.194Z,101870.31
2022-09-23T01:19:10.078Z,101871.25
2022-09-23T01:22:04.944Z,101868.66
2022-09-23T01:24:47.705Z,101859.97
2022-09-23T01:27:35.621Z,101866.03
2022-09-23T01:30:16.555Z,101867.78
2022-09-23T01:33:04.669Z,101864.44
2022-09-23T01:35:51.362Z,101859.22
2022-09-23T01:38:34.619Z,101858.41
2022-09-23T01:41:25.980Z,101856.63
2022-09-23T01:44:13.352Z,101848.88
2022-09-23T01:47:00.640Z,101842.84
2022-09-23T01:49:56.250Z,101846.28
2022-09-23T01:52:32.621Z,101844.59
2022-09-23T01:55:10.943Z,101848.16
2022-09-23T01:57:48.771Z,101842.84
2022-09-23T02:00:17.893Z,101848.16
2022-09-23T02:03:01.284Z,101843.75
2022-09-23T02:05:29.956Z,101842.94
2022-09-23T02:08:03.078Z,101833.41
2022-09-23T02:10:35.985Z,101844.78
2022-09-23T02:13:08.610Z,101840.38
2022-09-23T02:15:40.819Z,101839.56
2022-09-23T02:18:16.656Z,101838.72
2022-09-23T02:20:43.708Z,101824.81
2022-09-23T02:23:14.119Z,101829.94
2022-09-23T02:26:24.787Z,101821.38
2022-09-23T02:29:19.703Z,101811.88
2022-09-23T02:31:55.274Z,101816.16
2022-09-23T02:34:42.335Z,101809.25
2022-09-23T02:37:26.230Z,101804.91
2022-09-23T02:39:52.500Z,101797.16
2022-09-23T02:42:23.756Z,101797.16
2022-09-23T02:44:50.479Z,101792.03
2022-09-23T02:47:24.023Z,101796.31
2022-09-23T02:49:50.453Z,101792.03
2022-09-23T02:52:17.377Z,101785.03
2022-09-23T02:54:44.223Z,101785.97
2022-09-23T02:57:10.684Z,101779.09
2022-09-23T02:59:37.203Z,101784.31
2022-09-23T03:02:40.699Z,101786.06
2022-09-23T03:05:23.840Z,101780.84
2022-09-23T03:08:19.172Z,101786.16
2022-09-23T03:10:55.961Z,101778.31
2022-09-23T03:13:39.491Z,101782.72
2022-09-23T03:16:21.010Z,101777.50
2022-09-23T03:19:24.843Z,101775.81
2022-09-23T03:22:00.996Z,101774.03
2022-09-23T03:24:34.472Z,101761.94
2022-09-23T03:27:05.291Z,101773.19
2022-09-23T03:29:33.875Z,101773.31
2022-09-23T03:32:00.421Z,101766.28
2022-09-23T03:34:30.674Z,101768.09
2022-09-23T03:37:02.902Z,101763.78
2022-09-23T03:39:29.196Z,101763.78
2022-09-23T03:41:58.767Z,101761.19
2022-09-23T03:44:25.336Z,101760.25
2022-09-23T03:46:51.705Z,101767.25
2022-09-23T03:49:30.028Z,101757.84
2022-09-23T03:51:56.454Z,101754.31
2022-09-23T03:54:22.832Z,101751.78
2022-09-23T03:56:49.604Z,101752.63
2022-09-23T03:59:16.643Z,101749.19
2022-09-23T04:01:43.310Z,101749.19
2022-09-23T04:04:10.381Z,101748.31
2022-09-23T04:06:36.711Z,101742.28
2022-09-23T04:09:03.392Z,101744.88
2022-09-23T04:11:29.808Z,101737.88
2022-09-23T04:13:56.639Z,101737.97
2022-09-23T04:16:23.080Z,101734.53
2022-09-23T04:18:49.640Z,101738.91
2022-09-23T04:21:16.001Z,101734.53
2022-09-23T04:23:42.801Z,101748.41
2022-09-23T04:26:09.729Z,101744.13
2022-09-23T04:28:36.195Z,101744.13
2022-09-23T04:31:07.552Z,101739.00
2022-09-23T04:33:34.279Z,101733.78
2022-09-23T04:36:01.216Z,101739.00
2022-09-23T04:38:27.552Z,101737.34
2022-09-23T04:40:53.958Z,101729.41
2022-09-23T04:43:23.328Z,101728.66
2022-09-23T04:46:09.830Z,101728.66
2022-09-23T04:48:37.982Z,101733.88
2022-09-23T04:51:08.571Z,101732.13
2022-09-23T04:53:37.096Z,101728.56
2022-09-23T04:56:05.903Z,101730.34
2022-09-23T04:58:34.407Z,101730.34
2022-09-23T05:01:26.799Z,101731.16
2022-09-23T05:04:02.273Z,101733.69
2022-09-23T05:06:31.345Z,101724.19
2022-09-23T05:08:59.110Z,101730.34
2022-09-23T05:11:26.416Z,101722.41
2022-09-23T05:13:54.084Z,101719.91
2022-09-23T05:16:23.179Z,101723.44
2022-09-23T05:18:50.633Z,101718.22
2022-09-23T05:21:20.835Z,101719.09
2022-09-23T05:23:49.116Z,101726.06
2022-09-23T05:26:16.047Z,101713.00
2022-09-23T05:28:42.402Z,101726.06
2022-09-23T05:31:19.696Z,101720.94
2022-09-23T05:34:00.996Z,101725.31
2022-09-23T05:36:32.129Z,101721.03
2022-09-23T05:39:02.510Z,101731.38
2022-09-23T05:41:28.849Z,101732.31
2022-09-23T05:43:56.417Z,101734.84
2022-09-23T05:46:27.693Z,101729.63
2022-09-23T05:48:59.887Z,101737.53
2022-09-23T05:51:30.913Z,101730.44
2022-09-23T05:53:58.818Z,101733.88
2022-09-23T05:56:27.641Z,101726.06
2022-09-23T05:58:56.102Z,101730.34
2022-09-23T06:01:25.268Z,101731.16
2022-09-23T06:03:56.584Z,101733.69
2022-09-23T06:06:30.174Z,101730.25
2022-09-23T06:08:57.132Z,101731.75
2022-09-23T06:11:23.589Z,101738.66
2022-09-23T06:13:54.767Z,101732.56
2022-09-23T06:16:21.171Z,101736.75
2022-09-23T06:18:47.778Z,101739.38
2022-09-23T06:21:17.772Z,101732.38
2022-09-23T06:23:45.442Z,101732.25
2022-09-23T06:26:14.456Z,101727.03
2022-09-23T06:28:42.896Z,101725.28
2022-09-23T06:31:16.871Z,101727.03
2022-09-23T06:33:45.134Z,101721.81
2022-09-23T06:36:17.539Z,101724.34
2022-09-23T06:38:50.985Z,101712.97
2022-09-23T06:41:17.507Z,101727.72
2022-09-23T06:43:43.815Z,101724.28
2022-09-23T06:46:15.519Z,101715.47
2022-09-23T06:48:46.131Z,101726.88
2022-09-23T06:51:20.009Z,101722.38
2022-09-23T06:53:47.581Z,101723.22
2022-09-23T06:56:14.929Z,101719.78
2022-09-23T06:58:41.337Z,101726.78
2022-09-23T07:01:10.084Z,101723.22
2022-09-23T07:03:36.653Z,101718.84
2022-09-23T07:06:03.633Z,101724.91
2022-09-23T07:08:30.479Z,101725.72
2022-09-23T07:10:59.099Z,101719.69
2022-09-23T07:13:26.328Z,101723.97
2022-09-23T07:15:54.682Z,101720.50
2022-09-23T07:18:23.788Z,101721.34
2022-09-23T07:20:50.383Z,101720.50
2022-09-23T07:23:17.782Z,101724.91
2022-09-23T07:25:46.518Z,101717.91
2022-09-23T07:28:13.635Z,101715.28
2022-09-23T07:30:48.942Z,101711.75
2022-09-23T07:33:30.290Z,101702.13
2022-09-23T07:35:57.619Z,101714.34
2022-09-23T07:38:26.511Z,101716.03
2022-09-23T07:40:52.901Z,101718.66
2022-09-23T07:43:19.305Z,101724.69
2022-09-23T07:45:46.982Z,101729.91
2022-09-23T07:48:13.775Z,101723.88
2022-09-23T07:50:40.372Z,101729.91
2022-09-23T07:53:08.444Z,101725.53
2022-09-23T07:55:35.087Z,101726.38
2022-09-23T07:58:01.601Z,101726.38
2022-09-23T08:00:28.005Z,101726.38
2022-09-23T08:02:54.347Z,101734.22
2022-09-23T08:05:22.623Z,101729.72
2022-09-23T08:07:49.374Z,101725.34
2022-09-23T08:10:20.314Z,101725.34
2022-09-23T08:12:47.717Z,101720.13
2022-09-23T08:15:14.199Z,101728.78
2022-09-23T08:17:40.533Z,101729.63
2022-09-23T08:20:07.411Z,101728.78
2022-09-23T08:22:33.732Z,101730.56
2022-09-23T08:25:00.055Z,101728.78
2022-09-23T08:27:29.256Z,101728.78
2022-09-23T08:29:55.580Z,101728.78
2022-09-23T08:32:22.140Z,101727.00
2022-09-23T08:34:49.033Z,101726.91
2022-09-23T08:37:15.363Z,101717.44
2022-09-23T08:39:41.669Z,101724.41
2022-09-23T08:42:21.850Z,101727.00
2022-09-23T08:44:53.164Z,101720.03
2022-09-23T08:47:45.676Z,101727.88
2022-09-23T08:50:24.024Z,101732.13
2022-09-23T08:52:56.864Z,101731.31
2022-09-23T08:55:32.489Z,101728.78
2022-09-23T08:58:24.329Z,101731.41
2022-09-23T09:01:03.254Z,101724.41
2022-09-23T09:03:37.999Z,101729.63
2022-09-23T09:06:04.573Z,101721.69
2022-09-23T09:08:34.809Z,101729.53
2022-09-23T09:11:02.511Z,101721.69
2022-09-23T09:13:34.548Z,101725.97
2022-09-23T09:16:55.499Z,101720.75
2022-09-23T09:19:21.655Z,101709.50
2022-09-23T09:21:53.528Z,101712.09
2022-09-23T09:24:33.761Z,101718.16
2022-09-23T09:27:11.732Z,101719.94
2022-09-23T09:29:42.481Z,101713.03
2022-09-23T09:32:33.609Z,101713.03
2022-09-23T09:35:09.187Z,101713.84
2022-09-23T09:37:46.926Z,101701.75
2022-09-23T09:40:16.938Z,101712.09
2022-09-23T09:42:47.896Z,101706.88
2022-09-23T09:45:14.139Z,101705.09
2022-09-23T09:47:56.556Z,101704.16
2022-09-23T09:50:44.336Z,101704.16
2022-09-23T09:53:35.568Z,101704.06
2022-09-23T09:56:07.898Z,101704.91
2022-09-23T09:58:55.860Z,101701.34
2022-09-23T10:01:31.759Z,101690.06
2022-09-23T10:04:19.373Z,101698.66
2022-09-23T10:07:05.381Z,101696.75
2022-09-23T10:09:35.798Z,101699.25
2022-09-23T10:12:23.830Z,101701.78
2022-09-23T10:14:57.099Z,101691.34
2022-09-23T10:17:26.479Z,101692.09
2022-09-23T10:20:01.780Z,101688.56
2022-09-23T10:22:33.352Z,101684.06
2022-09-23T10:25:08.509Z,101677.78
2022-09-23T10:27:36.313Z,101682.91
2022-09-23T10:30:14.936Z,101676.72
2022-09-23T10:32:45.087Z,101674.06
2022-09-23T10:35:15.365Z,101675.69
2022-09-23T10:38:08.410Z,101670.47
2022-09-23T10:40:57.988Z,101672.06
2022-09-23T10:43:54.730Z,101676.34
2022-09-23T10:46:41.138Z,101673.63
2022-09-23T10:49:25.920Z,101673.63
2022-09-23T10:52:01.516Z,101678.88
2022-09-23T10:54:36.836Z,101675.28
2022-09-23T10:57:40.442Z,101678.75
2022-09-23T11:00:18.684Z,101681.38
2022-09-23T11:02:51.012Z,101676.97
2022-09-23T11:05:38.152Z,101676.97
2022-09-23T11:08:28.773Z,101673.44
2022-09-23T11:11:23.360Z,101670.00
2022-09-23T11:14:16.904Z,101677.84
2022-09-23T11:17:01.308Z,101678.66
2022-09-23T11:19:57.955Z,101670.81
2022-09-23T11:22:35.970Z,101662.16
2022-09-23T11:25:31.134Z,101663.81
2022-09-23T11:28:06.517Z,101664.59
2022-09-23T11:30:55.005Z,101669.72
2022-09-23T11:33:37.538Z,101675.66
2022-09-23T11:36:09.308Z,101664.38
2022-09-23T11:38:48.752Z,101666.91
2022-09-23T11:41:21.591Z,101658.19
2022-09-23T11:43:55.000Z,101655.50
2022-09-23T11:46:38.533Z,101658.84
2022-09-23T11:49:09.233Z,101658.75
2022-09-23T11:51:43.590Z,101650.91
2022-09-23T11:54:45.399Z,101647.38
2022-09-23T11:57:49.994Z,101647.16
2022-09-23T12:00:22.282Z,101643.50
2022-09-23T12:03:43.576Z,101648.63
2022-09-23T12:06:24.659Z,101655.50
2022-09-23T12:08:57.971Z,101645.03
2022-09-23T12:11:26.521Z,101638.06
2022-09-23T12:14:20.803Z,101634.50
2022-09-23T12:17:19.497Z,101634.38
2022-09-23T12:20:18.751Z,101633.44
2022-09-23T12:22:50.870Z,101635.13
2022-09-23T12:25:46.347Z,101629.91
2022-09-23T12:28:37.677Z,101627.19
2022-09-23T12:31:10.359Z,101619.47
2022-09-23T12:33:38.627Z,101615.91
2022-09-23T12:36:07.883Z,101607.22
2022-09-23T12:38:40.280Z,101609.81
2022-09-23T12:41:24.430Z,101602.84
2022-09-23T12:43:58.951Z,101608.91
2022-09-23T12:46:27.267Z,101613.31
2022-09-23T12:48:54.337Z,101615.91
2022-09-23T12:51:21.860Z,101610.69
2022-09-23T12:53:50.587Z,101601.06
2022-09-23T12:56:43.221Z,101609.72
2022-09-23T12:59:17.463Z,101600.13
2022-09-23T13:01:44.703Z,101601.78
2022-09-23T13:04:46.506Z,101601.78
2022-09-23T13:07:16.762Z,101604.28
2022-09-23T13:09:48.742Z,101598.22
2022-09-23T13:12:38.808Z,101590.28
2022-09-23T13:15:16.180Z,101593.81
2022-09-23T13:17:42.933Z,101598.94
2022-09-23T13:20:36.388Z,101594.56
2022-09-23T13:23:05.959Z,101594.47
2022-09-23T13:25:39.587Z,101585.81
2022-09-23T13:28:21.249Z,101583.09
2022-09-23T13:30:51.933Z,101583.91
2022-09-23T13:33:31.252Z,101580.47
2022-09-23T13:36:04.662Z,101589.03
2022-09-23T13:38:32.606Z,101584.63
2022-09-23T13:41:03.117Z,101581.91
2022-09-23T13:43:40.260Z,101574.91
2022-09-23T13:46:13.966Z,101575.84
2022-09-23T13:48:44.539Z,101580.84
2022-09-23T13:51:16.013Z,101577.19
2022-09-23T13:53:42.457Z,101571.88
2022-09-23T13:56:14.303Z,101574.38
2022-09-23T13:58:41.329Z,101569.84
2022-09-23T14:01:29.845Z,101581.16
2022-09-23T14:03:56.210Z,101570.72
2022-09-23T14:06:22.615Z,101572.19
2022-09-23T14:08:50.647Z,101568.72
2022-09-23T14:11:20.414Z,101568.59
2022-09-23T14:13:50.773Z,101565.97
2022-09-23T14:16:18.048Z,101559.81
2022-09-23T14:18:47.485Z,101557.91
2022-09-23T14:21:28.802Z,101557.09
2022-09-23T14:23:55.632Z,101553.53
2022-09-23T14:26:23.872Z,101548.44
2022-09-23T14:28:50.565Z,101543.09
2022-09-23T14:31:16.934Z,101543.09
2022-09-23T14:33:43.569Z,101537.97
2022-09-23T14:36:34.454Z,101538.78
2022-09-23T14:39:12.113Z,101540.59
2022-09-23T14:41:42.566Z,101531.78
2022-09-23T14:44:21.604Z,101534.38
2022-09-23T14:46:56.855Z,101528.34
2022-09-23T14:49:24.282Z,101533.44
2022-09-23T14:52:05.647Z,101532.50
2022-09-23T14:54:46.181Z,101531.66
2022-09-23T14:57:25.204Z,101530.84
2022-09-23T14:59:55.905Z,101527.41
2022-09-23T15:02:42.647Z,101527.41
2022-09-23T15:05:15.549Z,101523.22
2022-09-23T15:07:44.315Z,101519.78
2022-09-23T15:10:21.385Z,101521.53
2022-09-23T15:12:50.323Z,101522.50
2022-09-23T15:15:18.188Z,101518.91
2022-09-23T15:17:45.878Z,101524.25
2022-09-23T15:20:23.781Z,101521.53
2022-09-23T15:22:53.891Z,101511.94
2022-09-23T15:25:28.096Z,101512.75
2022-09-23T15:28:17.953Z,101512.75
2022-09-23T15:30:44.470Z,101504.91
2022-09-23T15:33:13.420Z,101503.97
2022-09-23T15:35:45.411Z,101503.97
2022-09-23T15:38:12.159Z,101501.25
2022-09-23T15:40:39.392Z,101511.72
2022-09-23T15:43:21.125Z,101507.31
2022-09-23T15:45:52.814Z,101509.00
2022-09-23T15:48:22.632Z,101509.00
2022-09-23T15:50:54.294Z,101500.28
2022-09-23T15:53:24.176Z,101509.00
2022-09-23T15:55:51.491Z,101498.53
2022-09-23T15:58:22.377Z,101505.63
2022-09-23T16:00:56.193Z,101499.56
2022-09-23T16:03:28.897Z,101497.91
2022-09-23T16:06:00.520Z,101498.00
2022-09-23T16:08:27.908Z,101504.09
2022-09-23T16:10:54.997Z,101502.19
2022-09-23T16:13:21.412Z,101500.28
2022-09-23T16:15:47.724Z,101495.91
2022-09-23T16:18:14.148Z,101499.34
2022-09-23T16:20:44.437Z,101504.47
2022-09-23T16:23:34.483Z,101501.03
2022-09-23T16:26:24.080Z,101504.47
2022-09-23T16:28:52.934Z,101501.03
2022-09-23T16:31:21.954Z,101501.84
2022-09-23T16:33:48.776Z,101505.31
2022-09-23T16:36:21.825Z,101507.94
2022-09-23T16:38:48.181Z,101505.44
2022-09-23T16:41:15.047Z,101495.81
2022-09-23T16:43:41.827Z,101511.59
2022-09-23T16:46:12.104Z,101500.28
2022-09-23T16:48:40.402Z,101509.00
2022-09-23T16:51:15.759Z,101507.19
2022-09-23T16:53:42.652Z,101507.31
2022-09-23T16:56:10.914Z,101505.50
2022-09-23T16:58:38.270Z,101506.38
2022-09-23T17:01:24.667Z,101505.44
2022-09-23T17:03:51.227Z,101508.06
2022-09-23T17:06:20.464Z,101506.38
2022-09-23T17:08:50.960Z,101509.00
2022-09-23T17:11:17.559Z,101513.38
2022-09-23T17:13:44.269Z,101513.28
2022-09-23T17:16:20.922Z,101508.06
2022-09-23T17:18:47.492Z,101508.06
2022-09-23T17:21:13.856Z,101504.47
2022-09-23T17:23:40.142Z,101510.56
2022-09-23T17:26:09.595Z,101511.50
2022-09-23T17:28:35.983Z,101505.44
2022-09-23T17:31:04.067Z,101505.44
2022-09-23T17:33:35.751Z,101495.06
2022-09-23T17:36:07.501Z,101508.88
2022-09-23T17:38:34.944Z,101506.38
2022-09-23T17:41:02.053Z,101506.38
2022-09-23T17:43:30.091Z,101499.34
2022-09-23T17:46:01.014Z,101494.13
2022-09-23T17:48:27.373Z,101489.63
2022-09-23T17:50:57.876Z,101487.84
2022-09-23T17:53:24.823Z,101487.03
2022-09-23T17:55:59.185Z,101486.16
2022-09-23T17:58:30.018Z,101487.03
2022-09-23T18:00:56.913Z,101483.31
2022-09-23T18:03:24.873Z,101486.06
2022-09-23T18:05:51.900Z,101485.22
2022-09-23T18:08:18.594Z,101481.78
2022-09-23T18:10:44.943Z,101485.34
2022-09-23T18:13:11.595Z,101481.91
2022-09-23T18:15:39.256Z,101485.34
2022-09-23T18:18:07.159Z,101487.13
2022-09-23T18:20:33.819Z,101488.78
2022-09-23T18:23:00.145Z,101484.53
2022-09-23T18:25:39.060Z,101482.84
2022-09-23T18:28:06.229Z,101486.28
2022-09-23T18:30:33.403Z,101491.41
2022-09-23T18:32:59.958Z,101490.47
2022-09-23T18:35:26.416Z,101487.97
2022-09-23T18:37:52.909Z,101490.47
2022-09-23T18:40:19.455Z,101487.13
2022-09-23T18:42:45.851Z,101484.53
2022-09-23T18:45:12.225Z,101492.38
2022-09-23T18:47:57.096Z,101493.19
2022-09-23T18:50:43.023Z,101490.56
2022-09-23T18:53:09.975Z,101490.47
2022-09-23T18:55:36.837Z,101483.56
2022-09-23T18:58:03.327Z,101486.28
2022-09-23T19:00:29.991Z,101498.41
2022-09-23T19:02:56.372Z,101494.13
2022-09-23T19:05:22.670Z,101494.13
2022-09-23T19:07:49.030Z,101489.75
2022-09-23T19:10:15.665Z,101492.44
2022-09-23T19:12:42.039Z,101487.97
2022-09-23T19:15:09.184Z,101487.97
2022-09-23T19:17:35.515Z,101487.13
2022-09-23T19:20:02.023Z,101494.88
2022-09-23T19:22:30.297Z,101490.56
2022-09-23T19:24:56.620Z,101488.91
2022-09-23T19:27:23.382Z,101491.50
2022-09-23T19:29:50.964Z,101489.75
2022-09-23T19:32:17.383Z,101492.38
2022-09-23T19:34:46.271Z,101487.13
2022-09-23T19:37:12.568Z,101493.31
2022-09-23T19:39:40.551Z,101483.66
2022-09-23T19:42:07.554Z,101486.28
2022-09-23T19:44:37.607Z,101482.84
2022-09-23T19:47:03.987Z,101480.22
2022-09-23T19:49:30.968Z,101483.78
2022-09-23T19:51:57.313Z,101483.66
2022-09-23T19:54:26.407Z,101481.06
2022-09-23T19:56:52.776Z,101484.53
2022-09-23T19:59:19.668Z,101474.06
2022-09-23T20:01:47.501Z,101476.69
2022-09-23T20:04:15.491Z,101480.13
2022-09-23T20:06:41.880Z,101482.72
2022-09-23T20:09:08.356Z,101473.22
2022-09-23T20:11:35.038Z,101472.28
2022-09-23T20:14:04.297Z,101472.38
2022-09-23T20:16:33.691Z,101470.59
2022-09-23T20:19:01.221Z,101464.44
2022-09-23T20:21:29.074Z,101466.22
2022-09-23T20:23:56.135Z,101474.06
2022-09-23T20:26:40.779Z,101471.44
2022-09-23T20:29:08.756Z,101468.91
2022-09-23T20:31:35.277Z,101466.31
2022-09-23T20:34:05.379Z,101461.94
2022-09-23T20:36:32.815Z,101452.41
2022-09-23T20:39:01.183Z,101462.03
2022-09-23T20:41:29.664Z,101457.75
2022-09-23T20:43:59.278Z,101454.41
2022-09-23T20:46:26.683Z,101456.06
2022-09-23T20:48:54.154Z,101453.56
2022-09-23T20:51:20.878Z,101454.41
2022-09-23T20:53:52.602Z,101447.41
2022-09-23T20:56:22.085Z,101447.41
2022-09-23T20:58:50.272Z,101451.69
2022-09-23T21:01:16.686Z,101445.59
2022-09-23T21:03:45.405Z,101445.59
2022-09-23T21:06:14.130Z,101444.91
2022-09-23T21:08:41.184Z,101442.19
2022-09-23T21:11:11.128Z,101439.66
2022-09-23T21:13:37.579Z,101433.63
2022-09-23T21:16:09.610Z,101433.63
2022-09-23T21:18:37.168Z,101437.16
2022-09-23T21:21:04.748Z,101431.94
2022-09-23T21:23:34.176Z,101431.94
2022-09-23T21:26:04.224Z,101432.88
2022-09-23T21:28:32.050Z,101431.94
2022-09-23T21:31:04.546Z,101424.22
2022-09-23T21:33:31.267Z,101428.59
2022-09-23T21:36:04.123Z,101428.59
2022-09-23T21:38:31.431Z,101420.75
2022-09-23T21:41:00.772Z,101419.91
2022-09-23T21:43:31.640Z,101421.72
2022-09-23T21:46:03.418Z,101422.53
2022-09-23T21:48:31.296Z,101421.72
2022-09-23T21:51:02.676Z,101420.75
2022-09-23T21:53:30.925Z,101423.34
2022-09-23T21:56:20.662Z,101421.72
2022-09-23T21:58:48.074Z,101425.25
2022-09-23T22:01:18.040Z,101425.25
2022-09-23T22:03:52.478Z,101435.72
2022-09-23T22:06:24.575Z,101433.09
2022-09-23T22:08:58.931Z,101418.34
2022-09-23T22:11:48.372Z,101425.25
2022-09-23T22:14:16.536Z,101429.66
2022-09-23T22:16:43.478Z,101418.34
2022-09-23T22:19:11.410Z,101426.19
2022-09-23T22:21:39.894Z,101415.75
2022-09-23T22:24:08.577Z,101424.56
2022-09-23T22:26:38.435Z,101428.00
2022-09-23T22:29:25.307Z,101417.53
2022-09-23T22:32:10.043Z,101421.94
2022-09-23T22:34:52.596Z,101403.75
2022-09-23T22:37:21.600Z,101417.53
2022-09-23T22:39:47.991Z,101409.81
2022-09-23T22:42:14.364Z,101414.91
2022-09-23T22:44:40.792Z,101407.19
2022-09-23T22:47:08.027Z,101408.00
2022-09-23T22:49:34.477Z,101405.50
2022-09-23T22:52:03.892Z,101408.13
2022-09-23T22:54:33.657Z,101400.28
2022-09-23T22:57:03.638Z,101405.50
2022-09-23T22:59:29.964Z,101397.78
2022-09-23T23:01:57.409Z,101406.38
2022-09-23T23:04:23.811Z,101397.78
2022-09-23T23:06:53.341Z,101403.88
2022-09-23T23:09:19.648Z,101401.25
2022-09-23T23:11:47.028Z,101401.25
2022-09-23T23:14:16.068Z,101393.41
2022-09-23T23:16:43.555Z,101396.97
2022-09-23T23:19:13.408Z,101392.56
2022-09-23T23:21:43.181Z,101389.13
2022-09-23T23:24:19.928Z,101397.78
2022-09-23T23:26:47.348Z,101388.28
2022-09-23T23:29:16.051Z,101389.22
2022-09-23T23:31:43.021Z,101391.84
2022-09-23T23:34:22.927Z,101390.06
2022-09-23T23:36:54.782Z,101395.28
2022-09-23T23:39:26.093Z,101377.94
2022-09-23T23:41:54.642Z,101381.41
2022-09-23T23:44:21.355Z,101384.00
2022-09-23T23:46:49.124Z,101380.53
2022-09-23T23:49:15.880Z,101377.22
2022-09-23T23:51:42.351Z,101382.34
2022-09-23T23:54:08.702Z,101373.66
2022-09-23T23:56:35.089Z,101378.88
2022-09-23T23:59:04.804Z,101378.03
